Time;durP1;ratioP1;P1;durP2;ratioP2;P2;SDS_P1;SDS_P2;PMS_P1;PMS_P2;Temp;Humidity;BMP_temperature;BMP_pressure;BME280_temperature;BME280_humidity;BME280_pressure;Samples;Min_cycle;Max_cycle;Signal;HPM_P1;HPM_P2
2021/07/12 00:00:13;;;;;;;4.95;2.17;;;17.90;67.00;;;;;;5074059;28;20052;-75
2021/07/12 00:02:39;;;;;;;3.13;1.80;;;17.90;67.10;;;;;;5074405;28;20020;-76
2021/07/12 00:05:06;;;;;;;3.58;1.80;;;17.90;67.30;;;;;;5070373;28;20477;-76
2021/07/12 00:07:32;;;;;;;1.20;1.10;;;17.90;67.80;;;;;;5073362;28;20127;-75
2021/07/12 00:09:58;;;;;;;4.40;0.98;;;17.90;67.90;;;;;;5065619;28;20481;-75
2021/07/12 00:12:24;;;;;;;3.60;2.08;;;18.00;68.00;;;;;;5059722;28;20028;-75
2021/07/12 00:14:50;;;;;;;2.05;1.60;;;18.00;68.20;;;;;;5064173;28;20523;-76
2021/07/12 00:17:15;;;;;;;2.13;1.80;;;18.10;68.30;;;;;;5065420;28;20028;-77
2021/07/12 00:19:41;;;;;;;2.17;1.00;;;18.10;68.10;;;;;;5064079;28;20025;-76
2021/07/12 00:22:07;;;;;;;2.85;1.60;;;18.10;67.90;;;;;;5068761;28;20033;-75
2021/07/12 00:24:33;;;;;;;2.30;1.60;;;18.20;67.80;;;;;;5065335;28;20051;-75
2021/07/12 00:26:59;;;;;;;14.75;2.05;;;18.20;67.60;;;;;;5057027;28;20071;-75
2021/07/12 00:29:25;;;;;;;4.20;2.22;;;18.30;67.70;;;;;;5060922;28;20421;-75
2021/07/12 00:31:51;;;;;;;4.20;2.00;;;18.30;67.50;;;;;;5057752;28;20662;-75
2021/07/12 00:34:17;;;;;;;2.65;2.17;;;18.40;67.50;;;;;;5056109;28;20037;-76
2021/07/12 00:36:42;;;;;;;6.18;2.10;;;18.30;67.40;;;;;;5064792;28;20482;-75
2021/07/12 00:39:08;;;;;;;2.72;2.17;;;18.40;67.30;;;;;;5060575;28;20032;-76
2021/07/12 00:41:35;;;;;;;2.67;2.47;;;18.40;67.20;;;;;;5063195;28;20056;-76
2021/07/12 00:44:04;;;;;;;3.97;2.30;;;18.40;67.00;;;;;;5063147;28;20082;-77
2021/07/12 00:46:30;;;;;;;4.78;2.15;;;18.40;67.00;;;;;;5064239;28;20029;-76
2021/07/12 00:48:55;;;;;;;3.00;2.20;;;18.40;67.00;;;;;;5062964;28;20078;-75
2021/07/12 00:51:22;;;;;;;2.92;2.60;;;18.40;67.00;;;;;;5064666;28;20040;-76
2021/07/12 00:53:49;;;;;;;4.25;2.40;;;18.40;66.90;;;;;;5057162;28;20047;-76
2021/07/12 00:56:16;;;;;;;7.75;2.92;;;18.40;66.70;;;;;;5058925;28;20474;-77
2021/07/12 00:58:42;;;;;;;6.68;2.83;;;18.40;66.50;;;;;;5063371;28;20035;-75
2021/07/12 01:01:08;;;;;;;5.80;2.80;;;18.40;66.30;;;;;;5069376;28;20422;-77
2021/07/12 01:03:35;;;;;;;7.95;3.00;;;18.40;66.20;;;;;;5068047;28;20701;-76
2021/07/12 01:06:00;;;;;;;6.82;2.88;;;18.30;66.00;;;;;;5067920;28;20433;-76
2021/07/12 01:08:26;;;;;;;8.13;3.20;;;18.30;65.80;;;;;;5070547;28;20029;-77
2021/07/12 01:10:59;;;;;;;10.30;4.20;;;18.20;65.70;;;;;;5071158;28;20035;-77
2021/07/12 01:13:39;;;;;;;8.82;3.05;;;18.20;65.80;;;;;;5066173;28;20028;-76
2021/07/12 01:16:17;;;;;;;15.10;4.57;;;18.10;65.70;;;;;;5064363;28;20120;-75
2021/07/12 01:19:07;;;;;;;13.32;4.40;;;18.10;65.80;;;;;;5069430;28;20021;-75
2021/07/12 01:22:10;;;;;;;18.35;6.20;;;18.00;65.80;;;;;;5072794;28;20027;-76
2021/07/12 01:24:54;;;;;;;13.57;4.93;;;17.90;65.90;;;;;;5071140;28;20024;-75
2021/07/12 01:27:44;;;;;;;9.32;3.65;;;17.90;65.90;;;;;;5058273;28;20039;-76
2021/07/12 01:30:40;;;;;;;8.60;3.45;;;17.80;65.90;;;;;;5057103;28;20092;-75
2021/07/12 01:33:22;;;;;;;7.20;2.38;;;17.80;66.00;;;;;;5058545;28;20057;-76
2021/07/12 01:36:02;;;;;;;6.43;2.90;;;17.70;66.00;;;;;;5069146;28;20112;-76
2021/07/12 01:38:46;;;;;;;9.35;3.13;;;17.70;66.10;;;;;;5057223;28;20017;-76
2021/07/12 01:41:50;;;;;;;13.73;3.45;;;17.60;66.20;;;;;;5057022;28;20027;-75
2021/07/12 01:44:40;;;;;;;9.15;3.40;;;17.60;66.30;;;;;;5058305;28;20504;-76
2021/07/12 01:47:08;;;;;;;10.55;3.42;;;17.60;66.30;;;;;;5058514;28;20033;-76
2021/07/12 01:49:40;;;;;;;9.10;3.22;;;17.50;66.90;;;;;;5058124;28;20049;-75
2021/07/12 01:52:18;;;;;;;11.25;4.30;;;17.50;66.30;;;;;;5057039;28;20024;-76
2021/07/12 01:54:50;;;;;;;10.05;4.07;;;17.40;66.40;;;;;;5058133;28;20028;-75
2021/07/12 01:57:23;;;;;;;11.18;4.38;;;17.40;66.30;;;;;;5069372;28;20490;-76
2021/07/12 02:00:05;;;;;;;10.93;3.80;;;17.30;66.30;;;;;;5076963;28;20493;-76
2021/07/12 02:02:32;;;;;;;9.13;3.25;;;17.30;66.40;;;;;;5079801;28;20314;-75
2021/07/12 02:05:11;;;;;;;13.02;4.00;;;17.30;66.40;;;;;;5088034;28;20100;-76
2021/07/12 02:07:39;;;;;;;8.07;3.85;;;17.30;66.60;;;;;;5056392;28;20056;-75
2021/07/12 02:10:06;;;;;;;12.05;3.88;;;17.20;66.50;;;;;;5053316;28;20031;-75
2021/07/12 02:12:34;;;;;;;7.93;3.33;;;17.20;66.80;;;;;;5053583;28;20033;-76
2021/07/12 02:15:02;;;;;;;9.82;4.45;;;17.10;66.80;;;;;;5054985;28;20017;-75
2021/07/12 02:17:29;;;;;;;19.90;5.65;;;17.10;67.00;;;;;;5053591;28;20025;-75
2021/07/12 02:19:58;;;;;;;18.55;8.10;;;17.10;67.30;;;;;;5054720;28;20433;-76
2021/07/12 02:22:24;;;;;;;21.80;8.45;;;17.10;67.70;;;;;;5054754;28;20482;-75
2021/07/12 02:24:52;;;;;;;20.30;8.43;;;17.10;67.90;;;;;;5054618;28;20033;-75
2021/07/12 02:27:21;;;;;;;21.33;11.02;;;17.20;68.00;;;;;;5054433;28;20056;-76
2021/07/12 02:29:48;;;;;;;21.08;10.35;;;17.10;68.10;;;;;;5053194;28;20470;-75
2021/07/12 02:32:16;;;;;;;29.83;14.48;;;17.10;68.10;;;;;;5054543;28;20059;-75
2021/07/12 02:34:42;;;;;;;27.58;13.15;;;17.20;68.60;;;;;;5067717;28;20020;-75
2021/07/12 02:37:08;;;;;;;26.83;13.63;;;17.20;68.60;;;;;;5055587;28;20074;-76
2021/07/12 02:39:34;;;;;;;24.85;13.73;;;17.20;68.70;;;;;;5054245;28;20481;-75
2021/07/12 02:42:02;;;;;;;23.90;12.57;;;17.20;69.10;;;;;;5052904;28;20028;-76
2021/07/12 02:44:30;;;;;;;26.67;14.55;;;17.30;68.90;;;;;;5054331;28;20021;-75
2021/07/12 02:46:58;;;;;;;25.55;12.80;;;17.30;68.90;;;;;;5054268;28;20029;-75
2021/07/12 02:49:24;;;;;;;27.63;14.85;;;17.30;68.80;;;;;;5054366;28;20025;-76
2021/07/12 02:51:55;;;;;;;26.65;13.68;;;17.40;68.80;;;;;;5054196;28;20070;-76
2021/07/12 02:54:39;;;;;;;25.63;13.50;;;17.40;68.70;;;;;;5074304;28;20060;-75
2021/07/12 02:57:04;;;;;;;32.28;14.13;;;17.40;68.70;;;;;;5061019;28;20044;-75
2021/07/12 02:59:30;;;;;;;32.70;14.80;;;17.40;68.40;;;;;;5070241;28;20025;-75
2021/07/12 03:01:56;;;;;;;23.15;13.65;;;17.40;68.50;;;;;;5054736;28;20382;-75
2021/07/12 03:04:22;;;;;;;25.30;14.77;;;17.40;68.40;;;;;;5054595;28;20108;-75
2021/07/12 03:06:52;;;;;;;22.17;12.57;;;17.30;68.30;;;;;;5054767;28;20056;-75
2021/07/12 03:09:31;;;;;;;19.20;10.05;;;17.30;68.00;;;;;;5054614;28;20056;-74
2021/07/12 03:12:02;;;;;;;19.35;10.70;;;17.30;68.00;;;;;;5071247;28;20016;-75
2021/07/12 03:14:38;;;;;;;18.45;9.15;;;17.30;67.90;;;;;;5054377;28;20102;-75
2021/07/12 03:17:05;;;;;;;22.77;9.77;;;17.20;67.80;;;;;;5054511;28;20486;-74
2021/07/12 03:19:33;;;;;;;24.45;8.30;;;17.20;67.80;;;;;;5054410;28;20021;-76
2021/07/12 03:22:03;;;;;;;14.75;7.18;;;17.20;67.80;;;;;;5052930;28;20078;-76
2021/07/12 03:24:30;;;;;;;25.08;6.47;;;17.10;67.70;;;;;;5067009;28;20036;-75
2021/07/12 03:26:59;;;;;;;10.20;5.15;;;17.10;67.60;;;;;;5065204;28;20032;-76
2021/07/12 03:29:30;;;;;;;10.23;4.90;;;17.10;67.60;;;;;;5054162;28;20021;-75
2021/07/12 03:31:58;;;;;;;9.38;4.75;;;17.10;67.70;;;;;;5053920;28;20090;-76
2021/07/12 03:34:27;;;;;;;7.45;4.60;;;17.00;67.60;;;;;;5052681;28;20029;-76
2021/07/12 03:36:54;;;;;;;11.73;4.43;;;17.00;67.60;;;;;;5053682;28;20104;-76
2021/07/12 03:39:21;;;;;;;10.25;4.55;;;17.00;67.80;;;;;;5053792;28;20025;-76
2021/07/12 03:41:47;;;;;;;13.70;5.47;;;17.00;67.80;;;;;;5052293;28;20169;-76
2021/07/12 03:44:13;;;;;;;9.80;4.88;;;17.00;67.90;;;;;;5053723;28;20017;-76
2021/07/12 03:46:44;;;;;;;11.20;4.72;;;17.00;67.90;;;;;;5053721;28;20108;-76
2021/07/12 03:49:14;;;;;;;10.02;5.47;;;17.00;68.10;;;;;;5053731;28;20024;-75
2021/07/12 03:51:41;;;;;;;10.23;4.80;;;17.00;68.20;;;;;;5035064;28;20124;-75
2021/07/12 03:54:07;;;;;;;14.02;6.20;;;17.00;68.40;;;;;;5033663;28;20605;-75
2021/07/12 03:56:34;;;;;;;8.10;4.47;;;17.00;68.40;;;;;;5034970;28;20124;-75
2021/07/12 03:59:00;;;;;;;10.50;4.93;;;17.00;68.40;;;;;;5033666;28;20024;-76
2021/07/12 04:01:26;;;;;;;13.43;4.53;;;17.00;68.50;;;;;;5035057;28;20026;-76
2021/07/12 04:03:56;;;;;;;10.60;4.03;;;17.00;68.40;;;;;;5046212;28;20111;-75
2021/07/12 04:06:23;;;;;;;8.32;2.85;;;17.10;68.50;;;;;;5053424;28;20017;-76
2021/07/12 04:08:48;;;;;;;15.00;3.45;;;17.10;68.40;;;;;;5052015;28;20025;-76
2021/07/12 04:11:16;;;;;;;4.50;2.75;;;17.10;68.30;;;;;;5039823;28;20491;-75
2021/07/12 04:13:42;;;;;;;8.73;2.97;;;17.20;68.40;;;;;;5033373;28;20052;-76
2021/07/12 04:16:08;;;;;;;6.10;3.00;;;17.10;68.40;;;;;;5031766;28;20503;-76
2021/07/12 04:18:34;;;;;;;6.95;3.33;;;17.20;68.50;;;;;;5033320;28;20100;-75
2021/07/12 04:21:01;;;;;;;7.60;2.80;;;17.30;68.50;;;;;;5033193;28;20021;-76
2021/07/12 04:23:27;;;;;;;7.10;3.38;;;17.30;68.70;;;;;;5033173;28;20083;-76
2021/07/12 04:25:53;;;;;;;8.75;3.30;;;17.40;69.10;;;;;;5031864;28;20025;-75
2021/07/12 04:28:19;;;;;;;19.15;6.15;;;17.50;69.40;;;;;;5033064;28;20033;-75
2021/07/12 04:30:45;;;;;;;26.60;9.20;;;17.60;69.80;;;;;;5033055;28;20025;-75
2021/07/12 04:33:11;;;;;;;43.80;14.38;;;17.70;69.80;;;;;;5032669;28;20037;-74
2021/07/12 04:35:37;;;;;;;34.00;12.32;;;17.90;69.70;;;;;;5035848;28;20379;-75
2021/07/12 04:38:03;;;;;;;32.35;11.10;;;18.00;69.50;;;;;;5041502;28;20029;-76
2021/07/12 04:40:28;;;;;;;34.42;12.45;;;18.10;69.40;;;;;;5052715;28;20128;-76
2021/07/12 04:42:54;;;;;;;40.22;14.68;;;18.30;69.20;;;;;;5032715;28;20057;-77
2021/07/12 04:45:20;;;;;;;45.80;16.25;;;18.40;68.70;;;;;;5050556;28;20033;-76
2021/07/12 04:47:46;;;;;;;50.28;17.40;;;18.50;68.70;;;;;;5043786;28;20037;-75
2021/07/12 04:50:12;;;;;;;49.67;16.73;;;18.60;68.30;;;;;;5040163;28;20049;-75
2021/07/12 04:52:38;;;;;;;44.05;15.77;;;18.70;68.00;;;;;;5067390;28;20039;-76
2021/07/12 04:55:06;;;;;;;43.50;19.13;;;18.80;67.80;;;;;;5064830;28;20029;-76
2021/07/12 04:57:34;;;;;;;57.42;22.85;;;19.00;67.80;;;;;;5056314;28;20103;-75
2021/07/12 05:00:01;;;;;;;58.67;24.63;;;19.10;67.20;;;;;;5059657;28;20025;-76
2021/07/12 05:02:27;;;;;;;59.75;24.48;;;19.20;67.80;;;;;;5051829;28;20029;-76
2021/07/12 05:04:53;;;;;;;60.33;23.35;;;19.30;66.60;;;;;;5051390;28;20115;-77
2021/07/12 05:07:19;;;;;;;66.60;25.55;;;19.40;66.30;;;;;;5052752;28;20048;-75
2021/07/12 05:09:45;;;;;;;57.72;22.35;;;19.50;65.90;;;;;;5052475;28;20021;-76
2021/07/12 05:12:13;;;;;;;61.65;23.42;;;19.60;65.90;;;;;;5057975;28;20521;-75
2021/07/12 05:14:42;;;;;;;50.30;21.65;;;19.70;65.70;;;;;;5082050;28;20490;-76
2021/07/12 05:17:10;;;;;;;58.75;24.95;;;19.80;65.60;;;;;;5062447;28;20021;-76
2021/07/12 05:19:35;;;;;;;55.13;23.67;;;19.90;64.70;;;;;;5064723;28;20025;-76
2021/07/12 05:22:01;;;;;;;58.47;25.73;;;19.90;64.90;;;;;;5063508;28;20021;-76
2021/07/12 05:24:27;;;;;;;60.88;25.08;;;20.00;64.80;;;;;;5058162;28;20477;-75
2021/07/12 05:26:53;;;;;;;42.50;19.63;;;20.10;64.70;;;;;;5055646;28;20025;-76
2021/07/12 05:29:18;;;;;;;23.45;9.88;;;20.10;64.30;;;;;;5068590;28;20039;-75
2021/07/12 05:31:46;;;;;;;17.70;7.85;;;20.20;63.50;;;;;;5062201;28;20030;-76
2021/07/12 05:34:12;;;;;;;25.50;10.60;;;20.30;63.10;;;;;;5078333;28;20032;-75
2021/07/12 05:36:38;;;;;;;30.65;13.80;;;20.30;62.80;;;;;;5082369;28;20028;-76
2021/07/12 05:39:04;;;;;;;26.95;11.40;;;20.30;62.70;;;;;;5064485;28;20075;-76
2021/07/12 05:41:30;;;;;;;29.05;12.73;;;20.40;62.10;;;;;;5057536;28;20024;-76
2021/07/12 05:43:56;;;;;;;46.63;20.30;;;20.40;61.90;;;;;;5078704;28;20016;-76
2021/07/12 05:46:21;;;;;;;47.38;20.88;;;20.30;62.10;;;;;;5073835;28;20470;-76
2021/07/12 05:48:47;;;;;;;45.28;19.80;;;20.30;62.30;;;;;;5076010;28;20036;-76
2021/07/12 05:51:14;;;;;;;42.42;18.13;;;20.30;62.10;;;;;;5065403;28;20111;-75
2021/07/12 05:53:40;;;;;;;34.80;14.65;;;20.30;61.90;;;;;;5092066;28;20020;-76
2021/07/12 05:56:05;;;;;;;33.15;14.70;;;20.20;61.80;;;;;;5066011;28;20028;-76
2021/07/12 05:58:31;;;;;;;33.03;14.68;;;20.20;61.80;;;;;;5075777;28;20465;-75
2021/07/12 06:00:57;;;;;;;34.63;13.68;;;20.20;62.20;;;;;;5073995;28;20070;-77
2021/07/12 06:03:23;;;;;;;23.02;11.07;;;20.20;62.20;;;;;;5092626;28;20028;-75
2021/07/12 06:05:49;;;;;;;22.77;9.63;;;20.20;63.00;;;;;;5068679;28;20469;-75
2021/07/12 06:08:15;;;;;;;17.58;8.80;;;20.20;62.50;;;;;;5072677;28;20040;-76
2021/07/12 06:10:41;;;;;;;15.95;7.40;;;20.30;61.80;;;;;;5057568;28;20055;-75
2021/07/12 06:13:06;;;;;;;17.25;7.47;;;20.30;61.40;;;;;;5074009;28;20037;-74
2021/07/12 06:15:32;;;;;;;12.10;5.80;;;20.30;61.40;;;;;;5064952;28;20032;-75
2021/07/12 06:17:58;;;;;;;14.32;7.35;;;20.30;61.00;;;;;;5082146;28;20024;-75
2021/07/12 06:20:24;;;;;;;20.25;9.35;;;20.30;61.20;;;;;;5062139;28;20032;-76
2021/07/12 06:22:50;;;;;;;21.15;9.60;;;20.40;61.30;;;;;;5053742;28;20021;-76
2021/07/12 06:25:18;;;;;;;16.60;7.45;;;20.40;61.30;;;;;;5074423;28;20062;-77
2021/07/12 06:27:44;;;;;;;19.73;8.75;;;20.40;61.20;;;;;;5078159;28;20435;-75
2021/07/12 06:30:11;;;;;;;15.63;8.02;;;20.40;60.90;;;;;;5055070;28;20095;-77
2021/07/12 06:32:37;;;;;;;16.00;8.00;;;20.40;60.80;;;;;;5078338;28;20378;-76
2021/07/12 06:35:04;;;;;;;19.17;7.53;;;20.50;60.90;;;;;;5056248;28;20025;-75
2021/07/12 06:37:30;;;;;;;15.60;7.43;;;20.50;60.70;;;;;;5088094;28;20028;-76
2021/07/12 06:39:56;;;;;;;16.33;6.82;;;20.60;60.90;;;;;;5080175;28;20461;-76
2021/07/12 06:42:22;;;;;;;15.68;6.97;;;20.60;60.70;;;;;;5083162;28;20036;-77
2021/07/12 06:44:47;;;;;;;13.85;6.53;;;20.60;60.20;;;;;;5086434;28;20016;-76
2021/07/12 06:47:14;;;;;;;14.68;6.40;;;20.70;59.90;;;;;;5077615;28;20082;-76
2021/07/12 06:49:41;;;;;;;12.50;6.10;;;20.70;59.90;;;;;;5089197;28;20115;-76
2021/07/12 06:52:07;;;;;;;8.70;4.82;;;20.70;60.40;;;;;;5080519;28;20028;-76
2021/07/12 06:54:32;;;;;;;7.20;3.65;;;20.80;60.20;;;;;;5083005;28;20029;-75
2021/07/12 06:56:58;;;;;;;4.78;2.85;;;20.90;60.00;;;;;;5060956;28;20041;-75
2021/07/12 06:59:24;;;;;;;5.35;2.85;;;20.90;59.80;;;;;;5089051;28;20020;-75
2021/07/12 07:01:50;;;;;;;5.30;2.40;;;21.00;59.90;;;;;;5079460;28;20013;-76
2021/07/12 07:04:16;;;;;;;4.65;2.47;;;21.00;59.90;;;;;;5083753;28;20370;-77
2021/07/12 07:06:41;;;;;;;6.10;2.10;;;21.10;59.50;;;;;;5083297;28;20036;-75
2021/07/12 07:09:07;;;;;;;8.93;4.20;;;21.20;59.50;;;;;;5090114;28;20028;-76
2021/07/12 07:11:34;;;;;;;4.47;2.70;;;21.30;59.30;;;;;;5077247;28;20027;-76
2021/07/12 07:14:00;;;;;;;6.55;3.72;;;21.30;58.70;;;;;;5087534;28;20066;-76
2021/07/12 07:16:26;;;;;;;9.18;4.78;;;21.30;58.60;;;;;;5084232;28;20041;-76
2021/07/12 07:18:52;;;;;;;8.25;4.40;;;21.40;58.20;;;;;;5080078;28;20023;-76
2021/07/12 07:21:19;;;;;;;8.93;3.72;;;21.40;58.50;;;;;;5059719;28;20043;-77
2021/07/12 07:23:45;;;;;;;7.65;4.30;;;21.50;58.60;;;;;;5091267;28;20023;-77
2021/07/12 07:26:11;;;;;;;8.45;5.40;;;21.50;58.50;;;;;;5091579;28;20110;-76
2021/07/12 07:28:38;;;;;;;12.00;7.28;;;21.60;58.90;;;;;;5092748;28;20115;-78
2021/07/12 07:31:04;;;;;;;13.52;7.68;;;21.70;58.90;;;;;;5077982;28;20087;-77
2021/07/12 07:33:29;;;;;;;17.98;8.75;;;21.80;58.90;;;;;;5090033;28;20024;-75
2021/07/12 07:35:59;;;;;;;13.45;8.85;;;21.80;58.80;;;;;;5079288;28;20043;-75
2021/07/12 07:38:26;;;;;;;12.55;8.02;;;21.90;58.60;;;;;;5083478;28;20024;-75
2021/07/12 07:40:52;;;;;;;10.95;6.88;;;21.90;58.50;;;;;;5079804;28;20040;-76
2021/07/12 07:43:19;;;;;;;13.40;6.43;;;22.00;58.70;;;;;;5089900;28;20377;-76
2021/07/12 07:45:45;;;;;;;7.78;4.68;;;22.10;58.70;;;;;;5077961;28;20582;-77
2021/07/12 07:48:11;;;;;;;6.13;4.03;;;22.10;58.60;;;;;;5084366;28;20161;-77
2021/07/12 07:50:39;;;;;;;7.70;4.45;;;22.20;58.60;;;;;;5069640;28;20119;-77
2021/07/12 07:53:06;;;;;;;8.50;3.90;;;22.30;58.20;;;;;;5066066;28;20510;-77
2021/07/12 07:55:32;;;;;;;9.48;3.53;;;22.30;58.20;;;;;;5061845;28;20972;-78
2021/07/12 07:57:58;;;;;;;4.80;2.83;;;22.40;57.60;;;;;;5063866;28;20025;-77
2021/07/12 08:00:25;;;;;;;3.88;2.33;;;22.40;57.60;;;;;;5065907;28;20040;-75
2021/07/12 08:02:51;;;;;;;4.75;2.53;;;22.50;57.50;;;;;;5067489;28;20166;-79
2021/07/12 08:05:19;;;;;;;8.75;2.40;;;22.50;57.20;;;;;;5077623;28;20490;-76
2021/07/12 08:07:45;;;;;;;3.55;2.50;;;22.60;56.40;;;;;;5087291;28;20039;-77
2021/07/12 08:10:14;;;;;;;2.88;1.70;;;22.60;56.60;;;;;;5068084;28;20016;-76
2021/07/12 08:12:41;;;;;;;4.88;2.65;;;22.70;56.40;;;;;;5081020;28;20024;-76
2021/07/12 08:15:09;;;;;;;7.35;2.70;;;22.70;55.80;;;;;;5087194;28;20024;-76
2021/07/12 08:17:35;;;;;;;7.20;2.10;;;22.70;55.90;;;;;;5076231;28;20385;-76
2021/07/12 08:20:02;;;;;;;6.55;2.28;;;22.80;56.10;;;;;;5081327;28;20017;-76
2021/07/12 08:22:27;;;;;;;4.38;2.58;;;22.90;56.40;;;;;;5082607;28;20033;-77
2021/07/12 08:24:53;;;;;;;6.25;2.50;;;22.90;56.20;;;;;;5077799;28;20446;-76
2021/07/12 08:27:19;;;;;;;4.03;2.63;;;23.00;56.30;;;;;;5072472;28;20089;-76
2021/07/12 08:29:45;;;;;;;6.20;2.47;;;23.00;56.60;;;;;;5086939;28;20362;-77
2021/07/12 08:32:10;;;;;;;2.95;1.98;;;23.00;56.50;;;;;;5071795;28;20024;-76
2021/07/12 08:34:41;;;;;;;8.05;2.70;;;23.10;56.40;;;;;;5067670;28;20032;-78
2021/07/12 08:37:12;;;;;;;4.28;2.85;;;23.20;56.40;;;;;;5088249;28;20028;-76
2021/07/12 08:39:38;;;;;;;4.88;2.75;;;23.20;56.20;;;;;;5071831;28;20046;-78
2021/07/12 08:42:04;;;;;;;6.63;3.00;;;23.30;56.00;;;;;;5085316;28;20028;-77
2021/07/12 08:44:30;;;;;;;7.80;2.47;;;23.30;55.50;;;;;;5078835;28;20028;-77
2021/07/12 08:46:57;;;;;;;7.53;2.97;;;23.30;55.40;;;;;;5076986;28;20039;-77
2021/07/12 08:49:23;;;;;;;5.13;2.08;;;23.40;55.10;;;;;;5073600;28;20027;-78
2021/07/12 08:51:49;;;;;;;5.40;2.75;;;23.40;54.80;;;;;;5076695;28;20024;-77
2021/07/12 08:54:16;;;;;;;3.85;2.20;;;23.50;54.70;;;;;;5083342;28;20032;-77
2021/07/12 08:56:41;;;;;;;2.95;1.88;;;23.50;54.90;;;;;;5063571;28;20025;-77
2021/07/12 08:59:30;;;;;;;4.72;2.63;;;23.60;54.90;;;;;;5073826;28;20029;-76
2021/07/12 09:02:05;;;;;;;3.45;2.35;;;23.60;54.40;;;;;;5064425;28;20031;-76
2021/07/12 09:04:32;;;;;;;3.58;2.50;;;23.70;54.80;;;;;;5079729;28;20063;-77
2021/07/12 09:07:03;;;;;;;3.50;2.20;;;23.80;55.20;;;;;;5086445;28;20032;-77
2021/07/12 09:09:28;;;;;;;2.40;1.73;;;23.90;54.90;;;;;;5060752;28;20097;-79
2021/07/12 09:11:54;;;;;;;3.25;1.63;;;23.90;54.30;;;;;;5080141;28;20486;-77
2021/07/12 09:14:20;;;;;;;4.53;2.20;;;24.00;54.10;;;;;;5066901;28;20059;-76
2021/07/12 09:16:55;;;;;;;6.20;1.90;;;24.00;53.20;;;;;;5070459;28;20135;-78
2021/07/12 09:19:29;;;;;;;3.35;1.50;;;24.10;53.30;;;;;;5070713;28;20020;-77
2021/07/12 09:22:06;;;;;;;1.95;1.38;;;24.10;54.10;;;;;;5056095;28;20028;-77
2021/07/12 09:24:49;;;;;;;6.13;1.67;;;24.10;53.70;;;;;;5056221;28;20382;-81
2021/07/12 09:27:19;;;;;;;3.08;1.17;;;24.20;53.70;;;;;;5063028;28;20027;-79
2021/07/12 09:29:53;;;;;;;2.05;1.20;;;24.30;52.90;;;;;;5056084;28;20032;-76
2021/07/12 09:32:22;;;;;;;1.65;1.40;;;24.30;52.60;;;;;;5056290;28;20072;-76
2021/07/12 09:34:49;;;;;;;2.33;1.45;;;24.40;52.70;;;;;;5062106;28;20063;-75
2021/07/12 09:37:18;;;;;;;1.83;1.10;;;24.50;52.80;;;;;;5055229;28;20320;-76
2021/07/12 09:39:48;;;;;;;1.75;1.08;;;24.50;52.80;;;;;;5054410;28;20116;-77
2021/07/12 09:42:22;;;;;;;1.90;1.25;;;24.60;52.90;;;;;;5054124;28;20035;-77
2021/07/12 09:44:50;;;;;;;1.50;1.27;;;24.60;52.70;;;;;;5055494;28;20128;-77
2021/07/12 09:47:20;;;;;;;3.47;0.80;;;24.70;52.60;;;;;;5061252;28;20036;-78
2021/07/12 09:49:47;;;;;;;3.03;1.30;;;24.80;52.50;;;;;;5069504;28;20135;-79
2021/07/12 09:52:16;;;;;;;2.95;1.50;;;24.80;51.10;;;;;;5055789;28;20367;-78
2021/07/12 09:54:44;;;;;;;2.53;1.60;;;24.90;50.80;;;;;;5054390;28;20036;-78
2021/07/12 09:57:11;;;;;;;3.50;1.50;;;24.90;50.70;;;;;;5054054;28;20041;-78
2021/07/12 09:59:51;;;;;;;4.10;1.80;;;24.90;50.00;;;;;;5055355;28;20021;-80
2021/07/12 10:02:20;;;;;;;1.77;1.40;;;25.00;50.90;;;;;;5062802;28;20155;-80
2021/07/12 10:04:47;;;;;;;6.47;2.08;;;25.00;49.50;;;;;;5054217;28;20035;-80
2021/07/12 10:07:13;;;;;;;3.72;2.15;;;25.00;49.00;;;;;;5073992;28;20394;-79
2021/07/12 10:09:39;;;;;;;3.05;1.92;;;25.10;49.20;;;;;;5074080;28;20080;-80
2021/07/12 10:12:05;;;;;;;6.53;3.17;;;25.20;49.90;;;;;;5075297;28;20043;-79
2021/07/12 10:14:31;;;;;;;5.13;2.42;;;25.20;49.70;;;;;;5073535;28;20033;-80
2021/07/12 10:16:58;;;;;;;2.42;1.17;;;25.30;49.90;;;;;;5055478;28;20509;-79
2021/07/12 10:19:23;;;;;;;20.75;12.98;;;25.30;49.30;;;;;;5055929;28;20017;-80
2021/07/12 10:21:53;;;;;;;9.85;4.95;;;25.40;49.30;;;;;;5058150;28;20017;-82
2021/07/12 10:24:27;;;;;;;3.67;2.67;;;25.40;49.20;;;;;;5075177;28;20029;-78
2021/07/12 10:26:54;;;;;;;;;;;25.40;49.50;;;;;;5078676;28;20478;-79
2021/07/12 10:29:27;;;;;;;1.15;1.05;;;25.50;50.60;;;;;;5078281;28;19908;-80
2021/07/12 10:31:54;;;;;;;1.25;0.68;;;25.60;48.50;;;;;;5080348;28;20031;-80
2021/07/12 10:34:32;;;;;;;2.15;1.20;;;25.70;48.30;;;;;;5069497;28;20459;-79
2021/07/12 10:37:06;;;;;;;1.50;0.90;;;25.70;47.20;;;;;;5055084;28;20032;-80
2021/07/12 10:39:56;;;;;;;1.58;1.20;;;25.80;47.50;;;;;;5055013;28;20108;-79
2021/07/12 10:42:41;;;;;;;0.77;0.75;;;25.80;46.80;;;;;;5053874;28;20031;-78
2021/07/12 10:45:20;;;;;;;0.90;0.80;;;25.80;47.60;;;;;;5054126;28;20028;-80
2021/07/12 10:47:58;;;;;;;0.70;0.60;;;25.90;47.00;;;;;;5055191;28;20036;-79
2021/07/12 10:50:46;;;;;;;5.00;0.90;;;25.90;46.40;;;;;;5066277;28;20044;-78
2021/07/12 10:53:15;;;;;;;1.00;0.68;;;26.00;46.50;;;;;;5073417;28;20069;-79
2021/07/12 10:55:59;;;;;;;1.10;0.60;;;26.10;47.00;;;;;;5069319;28;20029;-78
2021/07/12 10:58:29;;;;;;;1.23;1.00;;;26.10;47.30;;;;;;5055099;28;20029;-80
2021/07/12 11:00:57;;;;;;;0.57;0.57;;;26.20;47.60;;;;;;5060045;28;20031;-77
2021/07/12 11:03:43;;;;;;;0.75;0.70;;;26.30;47.10;;;;;;5063756;28;20013;-77
2021/07/12 11:06:09;;;;;;;1.42;0.70;;;26.30;46.50;;;;;;5072647;28;20505;-78
2021/07/12 11:08:55;;;;;;;0.65;0.65;;;26.50;46.80;;;;;;5074176;28;20021;-78
2021/07/12 11:11:21;;;;;;;0.63;0.63;;;26.50;45.30;;;;;;5072890;28;20471;-78
2021/07/12 11:13:54;;;;;;;2.00;0.70;;;26.60;45.50;;;;;;5074391;28;20028;-80
2021/07/12 11:16:41;;;;;;;1.17;0.85;;;26.70;45.10;;;;;;5066265;28;20040;-78
2021/07/12 11:19:25;;;;;;;10.75;1.20;;;26.80;43.80;;;;;;5057733;28;20049;-78
2021/07/12 11:21:52;;;;;;;2.38;0.68;;;26.80;42.70;;;;;;5055277;28;20066;-78
2021/07/12 11:24:24;;;;;;;2.10;0.73;;;26.80;43.70;;;;;;5054240;28;20032;-80
2021/07/12 11:27:02;;;;;;;1.75;0.70;;;26.90;42.80;;;;;;5069482;28;20028;-79
2021/07/12 11:29:33;;;;;;;1.10;0.80;;;27.00;41.80;;;;;;5074910;28;20029;-77
2021/07/12 11:32:02;;;;;;;0.73;0.70;;;27.00;42.70;;;;;;5074720;28;20029;-78
2021/07/12 11:34:44;;;;;;;1.42;0.80;;;27.00;42.70;;;;;;5074786;28;20025;-78
2021/07/12 11:37:12;;;;;;;0.82;0.60;;;27.20;43.00;;;;;;5068087;28;20028;-76
2021/07/12 11:39:50;;;;;;;1.13;0.90;;;27.20;42.20;;;;;;5073819;28;20024;-78
2021/07/12 11:42:31;;;;;;;0.68;0.68;;;27.30;41.60;;;;;;5069267;28;20603;-78
2021/07/12 11:45:03;;;;;;;1.38;0.90;;;27.30;42.90;;;;;;5066212;28;20374;-77
2021/07/12 11:47:40;;;;;;;0.52;0.52;;;27.40;43.10;;;;;;5053774;28;20120;-82
2021/07/12 11:50:11;;;;;;;0.70;0.70;;;27.50;43.50;;;;;;5054291;28;20059;-77
2021/07/12 11:52:38;;;;;;;0.90;0.75;;;27.50;43.30;;;;;;5053355;28;20021;-81
2021/07/12 11:55:14;;;;;;;0.98;0.68;;;27.60;42.60;;;;;;5054738;28;20028;-79
2021/07/12 11:57:40;;;;;;;0.65;0.65;;;27.70;42.70;;;;;;5053498;28;20037;-79
2021/07/12 12:00:23;;;;;;;6.65;0.80;;;27.70;43.40;;;;;;5054374;28;20051;-79
2021/07/12 12:03:01;;;;;;;1.08;0.95;;;27.80;42.30;;;;;;5054480;28;20482;-78
2021/07/12 12:05:29;;;;;;;1.20;0.85;;;27.90;42.80;;;;;;5053260;28;20037;-78
2021/07/12 12:07:59;;;;;;;0.88;0.60;;;27.90;42.80;;;;;;5054494;28;20029;-79
2021/07/12 12:10:39;;;;;;;2.80;0.82;;;28.00;41.50;;;;;;5053186;28;20029;-77
2021/07/12 12:13:16;;;;;;;1.05;0.73;;;28.00;41.30;;;;;;5054470;28;20094;-76
2021/07/12 12:15:50;;;;;;;0.93;0.70;;;28.00;41.90;;;;;;5054526;28;20025;-78
2021/07/12 12:18:19;;;;;;;1.02;0.77;;;28.10;43.30;;;;;;5054432;28;20113;-78
2021/07/12 12:20:50;;;;;;;1.65;0.85;;;28.20;42.50;;;;;;5054431;28;20017;-79
2021/07/12 12:23:20;;;;;;;1.88;0.90;;;28.20;43.10;;;;;;5054340;28;20029;-78
2021/07/12 12:26:07;;;;;;;0.85;0.70;;;28.30;43.00;;;;;;5060574;28;20046;-76
2021/07/12 12:28:32;;;;;;;1.33;0.70;;;28.40;43.40;;;;;;5073006;28;20035;-79
2021/07/12 12:31:12;;;;;;;1.70;0.93;;;28.50;43.10;;;;;;5072848;28;20020;-79
2021/07/12 12:33:41;;;;;;;2.88;0.88;;;28.60;43.00;;;;;;5073614;28;20036;-77
2021/07/12 12:36:37;;;;;;;1.83;1.20;;;28.70;43.40;;;;;;5074195;28;20024;-79
2021/07/12 12:39:09;;;;;;;1.92;1.10;;;28.70;42.90;;;;;;5073713;28;20040;-79
2021/07/12 12:41:45;;;;;;;2.88;1.08;;;28.80;42.20;;;;;;5072755;28;20028;-80
2021/07/12 12:44:14;;;;;;;1.17;0.93;;;28.80;42.70;;;;;;5074222;28;20050;-79
2021/07/12 12:46:46;;;;;;;2.83;0.88;;;28.90;41.90;;;;;;5059800;28;20032;-78
2021/07/12 12:49:33;;;;;;;1.15;0.90;;;28.90;42.30;;;;;;5052896;28;20459;-78
2021/07/12 12:52:06;;;;;;;1.10;0.85;;;29.00;40.80;;;;;;5052990;28;20099;-79